sensor_id;sensor_type;location;lat;lon;timestamp;temperature;humidity
23683;DHT22;24897;53.514;10.482;2023-02-26T00:00:52;0.80;99.90
23683;DHT22;24897;53.514;10.482;2023-02-26T00:03:36;0.90;99.90
23683;DHT22;24897;53.514;10.482;2023-02-26T00:06:21;0.90;99.90
23683;DHT22;24897;53.514;10.482;2023-02-26T00:09:05;0.90;99.90
23683;DHT22;24897;53.514;10.482;2023-02-26T00:11:50;0.90;99.90
23683;DHT22;24897;53.514;10.482;2023-02-26T00:14:34;0.90;99.90
23683;DHT22;24897;53.514;10.482;2023-02-26T00:20:19;0.90;99.90
23683;DHT22;24897;53.514;10.482;2023-02-26T00:23:04;0.80;99.90
23683;DHT22;24897;53.514;10.482;2023-02-26T00:25:48;0.90;99.90
23683;DHT22;24897;53.514;10.482;2023-02-26T00:28:33;0.90;99.90
23683;DHT22;24897;53.514;10.482;2023-02-26T00:31:17;0.90;99.90
23683;DHT22;24897;53.514;10.482;2023-02-26T00:34:04;0.90;99.90
23683;DHT22;24897;53.514;10.482;2023-02-26T00:42:56;0.90;99.90
23683;DHT22;24897;53.514;10.482;2023-02-26T00:51:55;0.80;99.90
23683;DHT22;24897;53.514;10.482;2023-02-26T00:54:40;0.70;99.90
23683;DHT22;24897;53.514;10.482;2023-02-26T00:57:24;0.70;99.90
23683;DHT22;24897;53.514;10.482;2023-02-26T01:00:09;0.70;99.90
23683;DHT22;24897;53.514;10.482;2023-02-26T01:02:54;0.60;99.90
23683;DHT22;24897;53.514;10.482;2023-02-26T01:05:38;0.60;99.90
23683;DHT22;24897;53.514;10.482;2023-02-26T01:11:13;0.60;99.90
23683;DHT22;24897;53.514;10.482;2023-02-26T01:13:57;0.50;99.90
23683;DHT22;24897;53.514;10.482;2023-02-26T01:20:00;0.50;99.90
23683;DHT22;24897;53.514;10.482;2023-02-26T01:22:53;0.50;99.90
23683;DHT22;24897;53.514;10.482;2023-02-26T01:25:48;0.50;99.90
23683;DHT22;24897;53.514;10.482;2023-02-26T01:28:33;0.50;99.90
23683;DHT22;24897;53.514;10.482;2023-02-26T01:31:33;0.40;99.90
23683;DHT22;24897;53.514;10.482;2023-02-26T01:34:22;0.40;99.90
23683;DHT22;24897;53.514;10.482;2023-02-26T01:43:17;0.20;99.90
23683;DHT22;24897;53.514;10.482;2023-02-26T01:49:03;0.30;99.90
23683;DHT22;24897;53.514;10.482;2023-02-26T01:54:37;0.40;99.90
23683;DHT22;24897;53.514;10.482;2023-02-26T01:57:22;0.40;99.90
23683;DHT22;24897;53.514;10.482;2023-02-26T02:00:07;0.40;99.90
23683;DHT22;24897;53.514;10.482;2023-02-26T02:02:51;0.40;99.90
23683;DHT22;24897;53.514;10.482;2023-02-26T02:05:55;0.40;99.90
23683;DHT22;24897;53.514;10.482;2023-02-26T02:08:40;0.40;99.90
23683;DHT22;24897;53.514;10.482;2023-02-26T02:11:24;0.30;99.90
23683;DHT22;24897;53.514;10.482;2023-02-26T02:14:20;0.30;99.90
23683;DHT22;24897;53.514;10.482;2023-02-26T02:17:17;0.30;99.90
23683;DHT22;24897;53.514;10.482;2023-02-26T02:32:59;0.30;99.90
23683;DHT22;24897;53.514;10.482;2023-02-26T02:35:53;0.30;99.90
23683;DHT22;24897;53.514;10.482;2023-02-26T02:38:56;0.30;99.90
23683;DHT22;24897;53.514;10.482;2023-02-26T02:41:59;0.30;99.90
23683;DHT22;24897;53.514;10.482;2023-02-26T02:44:50;0.30;99.90
23683;DHT22;24897;53.514;10.482;2023-02-26T02:47:39;0.30;99.90
23683;DHT22;24897;53.514;10.482;2023-02-26T02:53:19;0.20;99.90
23683;DHT22;24897;53.514;10.482;2023-02-26T02:56:22;0.10;99.90
23683;DHT22;24897;53.514;10.482;2023-02-26T02:59:25;0.10;99.90
23683;DHT22;24897;53.514;10.482;2023-02-26T03:03:18;0.00;99.90
23683;DHT22;24897;53.514;10.482;2023-02-26T03:05:30;0.00;99.90
23683;DHT22;24897;53.514;10.482;2023-02-26T03:08:17;-0.10;99.90
23683;DHT22;24897;53.514;10.482;2023-02-26T03:11:04;-0.10;99.90
23683;DHT22;24897;53.514;10.482;2023-02-26T03:13:49;-0.20;99.90
23683;DHT22;24897;53.514;10.482;2023-02-26T03:19:44;-0.30;99.90
23683;DHT22;24897;53.514;10.482;2023-02-26T03:28:39;-0.30;99.90
23683;DHT22;24897;53.514;10.482;2023-02-26T03:31:32;-0.40;99.90
23683;DHT22;24897;53.514;10.482;2023-02-26T03:34:27;-0.40;99.90
23683;DHT22;24897;53.514;10.482;2023-02-26T03:37:22;-0.50;99.90
23683;DHT22;24897;53.514;10.482;2023-02-26T03:40:11;-0.50;99.90
23683;DHT22;24897;53.514;10.482;2023-02-26T03:43:17;-0.50;99.90
23683;DHT22;24897;53.514;10.482;2023-02-26T03:46:05;-0.50;99.90
23683;DHT22;24897;53.514;10.482;2023-02-26T03:48:50;-0.50;99.90
23683;DHT22;24897;53.514;10.482;2023-02-26T03:51:37;-0.50;99.90
23683;DHT22;24897;53.514;10.482;2023-02-26T03:55:14;-0.50;99.90
23683;DHT22;24897;53.514;10.482;2023-02-26T03:57:30;-0.60;99.90
23683;DHT22;24897;53.514;10.482;2023-02-26T04:00:16;-0.60;99.90
23683;DHT22;24897;53.514;10.482;2023-02-26T04:03:10;-0.70;99.90
23683;DHT22;24897;53.514;10.482;2023-02-26T04:05:55;-0.60;99.90
23683;DHT22;24897;53.514;10.482;2023-02-26T04:08:40;-0.60;99.90
23683;DHT22;24897;53.514;10.482;2023-02-26T04:11:26;-0.60;99.90
23683;DHT22;24897;53.514;10.482;2023-02-26T04:14:10;-0.60;99.90
23683;DHT22;24897;53.514;10.482;2023-02-26T04:16:54;-0.60;99.90
23683;DHT22;24897;53.514;10.482;2023-02-26T04:19:38;-0.70;99.90
23683;DHT22;24897;53.514;10.482;2023-02-26T04:22:23;-0.70;99.90
23683;DHT22;24897;53.514;10.482;2023-02-26T04:25:07;-0.70;99.90
23683;DHT22;24897;53.514;10.482;2023-02-26T04:27:52;-0.80;99.90
23683;DHT22;24897;53.514;10.482;2023-02-26T04:30:36;-0.90;99.90
23683;DHT22;24897;53.514;10.482;2023-02-26T04:33:20;-0.90;99.90
23683;DHT22;24897;53.514;10.482;2023-02-26T04:36:07;-1.00;99.90
23683;DHT22;24897;53.514;10.482;2023-02-26T04:38:51;-1.00;99.90
23683;DHT22;24897;53.514;10.482;2023-02-26T04:41:36;-1.10;99.90
23683;DHT22;24897;53.514;10.482;2023-02-26T04:44:21;-1.10;99.90
23683;DHT22;24897;53.514;10.482;2023-02-26T04:47:05;-1.10;99.90
23683;DHT22;24897;53.514;10.482;2023-02-26T04:49:49;-1.10;99.90
23683;DHT22;24897;53.514;10.482;2023-02-26T04:52:33;-1.10;99.90
23683;DHT22;24897;53.514;10.482;2023-02-26T04:55:17;-1.20;99.90
23683;DHT22;24897;53.514;10.482;2023-02-26T04:58:02;-1.60;99.90
23683;DHT22;24897;53.514;10.482;2023-02-26T05:00:48;-0.80;99.90
23683;DHT22;24897;53.514;10.482;2023-02-26T05:03:32;-1.20;99.90
23683;DHT22;24897;53.514;10.482;2023-02-26T05:06:17;-0.90;99.90
23683;DHT22;24897;53.514;10.482;2023-02-26T05:09:01;-1.30;99.90
23683;DHT22;24897;53.514;10.482;2023-02-26T05:11:46;-1.30;99.90
23683;DHT22;24897;53.514;10.482;2023-02-26T05:14:31;-1.30;99.90
23683;DHT22;24897;53.514;10.482;2023-02-26T05:17:16;-1.30;99.90
23683;DHT22;24897;53.514;10.482;2023-02-26T05:20:00;-1.40;99.90
23683;DHT22;24897;53.514;10.482;2023-02-26T05:22:44;-1.40;99.90
23683;DHT22;24897;53.514;10.482;2023-02-26T05:25:28;-1.40;99.90
23683;DHT22;24897;53.514;10.482;2023-02-26T05:28:12;-1.40;99.90
23683;DHT22;24897;53.514;10.482;2023-02-26T05:30:57;-1.50;99.90
23683;DHT22;24897;53.514;10.482;2023-02-26T05:33:41;-1.60;99.90
23683;DHT22;24897;53.514;10.482;2023-02-26T05:36:26;-1.60;99.90
23683;DHT22;24897;53.514;10.482;2023-02-26T05:39:10;-1.70;99.90
23683;DHT22;24897;53.514;10.482;2023-02-26T05:41:54;-1.70;99.90
23683;DHT22;24897;53.514;10.482;2023-02-26T05:44:40;-1.70;99.90
23683;DHT22;24897;53.514;10.482;2023-02-26T05:47:24;-1.80;99.90
23683;DHT22;24897;53.514;10.482;2023-02-26T05:50:11;-1.80;99.90
23683;DHT22;24897;53.514;10.482;2023-02-26T05:52:56;-1.90;99.90
23683;DHT22;24897;53.514;10.482;2023-02-26T05:55:40;-1.90;99.90
23683;DHT22;24897;53.514;10.482;2023-02-26T05:58:24;-1.80;99.90
23683;DHT22;24897;53.514;10.482;2023-02-26T06:01:08;-1.80;99.90
23683;DHT22;24897;53.514;10.482;2023-02-26T06:03:53;-1.80;99.90
23683;DHT22;24897;53.514;10.482;2023-02-26T06:06:37;-1.70;99.90
23683;DHT22;24897;53.514;10.482;2023-02-26T06:09:21;-1.70;99.90
23683;DHT22;24897;53.514;10.482;2023-02-26T06:12:05;-1.60;99.90
23683;DHT22;24897;53.514;10.482;2023-02-26T06:14:50;-1.60;99.90
23683;DHT22;24897;53.514;10.482;2023-02-26T06:17:35;-1.50;99.90
23683;DHT22;24897;53.514;10.482;2023-02-26T06:20:19;-1.40;99.90
23683;DHT22;24897;53.514;10.482;2023-02-26T06:23:03;-1.40;99.90
23683;DHT22;24897;53.514;10.482;2023-02-26T06:25:49;-1.40;99.90
23683;DHT22;24897;53.514;10.482;2023-02-26T06:28:34;-1.30;99.90
23683;DHT22;24897;53.514;10.482;2023-02-26T06:31:19;-1.30;99.90
23683;DHT22;24897;53.514;10.482;2023-02-26T06:34:03;-1.30;99.90
23683;DHT22;24897;53.514;10.482;2023-02-26T06:36:47;-1.20;99.90
23683;DHT22;24897;53.514;10.482;2023-02-26T06:39:32;-1.20;99.90
23683;DHT22;24897;53.514;10.482;2023-02-26T06:42:16;-1.20;99.90
23683;DHT22;24897;53.514;10.482;2023-02-26T06:45:00;-1.20;99.90
23683;DHT22;24897;53.514;10.482;2023-02-26T06:47:44;-1.20;99.90
23683;DHT22;24897;53.514;10.482;2023-02-26T06:50:28;-1.10;99.90
23683;DHT22;24897;53.514;10.482;2023-02-26T06:53:12;-1.10;99.90
23683;DHT22;24897;53.514;10.482;2023-02-26T06:55:57;-1.10;99.90
23683;DHT22;24897;53.514;10.482;2023-02-26T06:58:41;-1.00;99.90
23683;DHT22;24897;53.514;10.482;2023-02-26T07:01:25;-1.00;99.90
23683;DHT22;24897;53.514;10.482;2023-02-26T07:04:10;-0.90;99.90
23683;DHT22;24897;53.514;10.482;2023-02-26T07:06:54;-0.90;99.90
23683;DHT22;24897;53.514;10.482;2023-02-26T07:09:38;-0.90;99.90
23683;DHT22;24897;53.514;10.482;2023-02-26T07:12:22;-0.80;99.90
23683;DHT22;24897;53.514;10.482;2023-02-26T07:15:07;-0.80;99.90
23683;DHT22;24897;53.514;10.482;2023-02-26T07:17:51;-0.80;99.90
23683;DHT22;24897;53.514;10.482;2023-02-26T07:20:36;-0.70;99.90
23683;DHT22;24897;53.514;10.482;2023-02-26T07:23:23;-0.60;99.90
23683;DHT22;24897;53.514;10.482;2023-02-26T07:26:07;-0.50;99.90
23683;DHT22;24897;53.514;10.482;2023-02-26T07:28:52;-0.50;99.90
23683;DHT22;24897;53.514;10.482;2023-02-26T07:31:36;-0.40;99.90
23683;DHT22;24897;53.514;10.482;2023-02-26T07:34:21;-0.40;99.90
23683;DHT22;24897;53.514;10.482;2023-02-26T07:37:05;-0.40;99.90
23683;DHT22;24897;53.514;10.482;2023-02-26T07:39:49;-0.30;99.90
23683;DHT22;24897;53.514;10.482;2023-02-26T07:42:34;-0.20;99.90
23683;DHT22;24897;53.514;10.482;2023-02-26T07:45:18;-0.10;99.90
23683;DHT22;24897;53.514;10.482;2023-02-26T07:48:05;0.00;99.90
23683;DHT22;24897;53.514;10.482;2023-02-26T07:50:53;0.10;99.90
23683;DHT22;24897;53.514;10.482;2023-02-26T07:53:37;0.20;99.90
23683;DHT22;24897;53.514;10.482;2023-02-26T07:56:21;0.20;99.90
23683;DHT22;24897;53.514;10.482;2023-02-26T07:59:06;0.30;99.90
23683;DHT22;24897;53.514;10.482;2023-02-26T08:01:50;0.40;99.90
23683;DHT22;24897;53.514;10.482;2023-02-26T08:04:34;0.50;99.90
23683;DHT22;24897;53.514;10.482;2023-02-26T08:07:18;0.50;99.90
23683;DHT22;24897;53.514;10.482;2023-02-26T08:10:03;0.50;99.90
23683;DHT22;24897;53.514;10.482;2023-02-26T08:12:47;0.60;99.90
23683;DHT22;24897;53.514;10.482;2023-02-26T08:15:32;0.80;99.90
23683;DHT22;24897;53.514;10.482;2023-02-26T08:18:19;0.80;99.90
23683;DHT22;24897;53.514;10.482;2023-02-26T08:21:04;1.00;99.90
23683;DHT22;24897;53.514;10.482;2023-02-26T08:23:48;1.20;99.90
23683;DHT22;24897;53.514;10.482;2023-02-26T08:26:36;1.40;99.90
23683;DHT22;24897;53.514;10.482;2023-02-26T08:29:21;1.60;99.90
23683;DHT22;24897;53.514;10.482;2023-02-26T08:32:05;2.00;99.90
23683;DHT22;24897;53.514;10.482;2023-02-26T08:34:49;2.40;99.90
23683;DHT22;24897;53.514;10.482;2023-02-26T08:37:34;2.80;99.90
23683;DHT22;24897;53.514;10.482;2023-02-26T08:40:19;3.10;99.90
23683;DHT22;24897;53.514;10.482;2023-02-26T08:43:03;3.40;99.90
23683;DHT22;24897;53.514;10.482;2023-02-26T08:45:47;3.80;99.90
23683;DHT22;24897;53.514;10.482;2023-02-26T08:48:32;4.30;99.90
23683;DHT22;24897;53.514;10.482;2023-02-26T08:51:16;4.80;99.90
23683;DHT22;24897;53.514;10.482;2023-02-26T08:54:01;5.10;99.90
23683;DHT22;24897;53.514;10.482;2023-02-26T08:56:46;5.50;99.90
23683;DHT22;24897;53.514;10.482;2023-02-26T08:59:31;6.00;99.90
23683;DHT22;24897;53.514;10.482;2023-02-26T09:02:15;6.50;99.90
23683;DHT22;24897;53.514;10.482;2023-02-26T09:04:59;7.20;99.90
23683;DHT22;24897;53.514;10.482;2023-02-26T09:07:44;7.90;99.90
23683;DHT22;24897;53.514;10.482;2023-02-26T09:10:28;8.50;99.90
23683;DHT22;24897;53.514;10.482;2023-02-26T09:13:12;8.50;99.90
23683;DHT22;24897;53.514;10.482;2023-02-26T09:15:57;8.50;99.90
23683;DHT22;24897;53.514;10.482;2023-02-26T09:18:41;8.60;99.90
23683;DHT22;24897;53.514;10.482;2023-02-26T09:21:25;8.70;99.90
23683;DHT22;24897;53.514;10.482;2023-02-26T09:24:09;8.80;99.90
23683;DHT22;24897;53.514;10.482;2023-02-26T09:26:53;8.50;99.90
23683;DHT22;24897;53.514;10.482;2023-02-26T09:29:38;8.30;99.90
23683;DHT22;24897;53.514;10.482;2023-02-26T09:32:22;8.40;99.90
23683;DHT22;24897;53.514;10.482;2023-02-26T09:35:07;8.30;99.90
23683;DHT22;24897;53.514;10.482;2023-02-26T09:37:51;8.70;99.90
23683;DHT22;24897;53.514;10.482;2023-02-26T09:49:20;8.90;99.90
23683;DHT22;24897;53.514;10.482;2023-02-26T09:55:07;9.00;99.90
23683;DHT22;24897;53.514;10.482;2023-02-26T09:57:58;9.10;99.90
23683;DHT22;24897;53.514;10.482;2023-02-26T10:03:59;9.80;99.90
23683;DHT22;24897;53.514;10.482;2023-02-26T10:09:50;10.10;99.90
23683;DHT22;24897;53.514;10.482;2023-02-26T10:12:38;10.70;99.90
23683;DHT22;24897;53.514;10.482;2023-02-26T10:15:41;10.90;99.90
23683;DHT22;24897;53.514;10.482;2023-02-26T10:18:33;10.70;99.90
23683;DHT22;24897;53.514;10.482;2023-02-26T10:21:34;10.20;99.90
23683;DHT22;24897;53.514;10.482;2023-02-26T10:24:30;9.90;99.90
23683;DHT22;24897;53.514;10.482;2023-02-26T10:27:19;10.10;99.90
23683;DHT22;24897;53.514;10.482;2023-02-26T10:33:54;9.10;99.90
23683;DHT22;24897;53.514;10.482;2023-02-26T10:39:43;8.80;99.90
23683;DHT22;24897;53.514;10.482;2023-02-26T10:42:32;8.20;99.90
23683;DHT22;24897;53.514;10.482;2023-02-26T10:45:27;7.60;99.90
23683;DHT22;24897;53.514;10.482;2023-02-26T10:51:17;6.90;99.90
23683;DHT22;24897;53.514;10.482;2023-02-26T10:54:15;7.60;99.90
23683;DHT22;24897;53.514;10.482;2023-02-26T10:57:02;7.70;99.90
23683;DHT22;24897;53.514;10.482;2023-02-26T10:59:47;7.30;99.90
23683;DHT22;24897;53.514;10.482;2023-02-26T11:02:45;7.40;99.90
23683;DHT22;24897;53.514;10.482;2023-02-26T11:05:31;6.90;99.90
23683;DHT22;24897;53.514;10.482;2023-02-26T11:08:27;7.10;99.90
23683;DHT22;24897;53.514;10.482;2023-02-26T11:11:36;7.10;99.90
23683;DHT22;24897;53.514;10.482;2023-02-26T11:14:21;6.60;99.90
23683;DHT22;24897;53.514;10.482;2023-02-26T11:17:23;7.20;99.90
23683;DHT22;24897;53.514;10.482;2023-02-26T11:23:13;7.70;99.90
23683;DHT22;24897;53.514;10.482;2023-02-26T11:26:06;7.10;99.90
23683;DHT22;24897;53.514;10.482;2023-02-26T11:28:54;7.30;99.90
23683;DHT22;24897;53.514;10.482;2023-02-26T11:31:41;7.80;99.90
23683;DHT22;24897;53.514;10.482;2023-02-26T11:34:26;8.60;99.90
23683;DHT22;24897;53.514;10.482;2023-02-26T11:37:22;8.80;99.90
23683;DHT22;24897;53.514;10.482;2023-02-26T11:40:17;8.40;99.90
23683;DHT22;24897;53.514;10.482;2023-02-26T11:43:07;7.70;99.90
23683;DHT22;24897;53.514;10.482;2023-02-26T11:45:57;7.30;99.90
23683;DHT22;24897;53.514;10.482;2023-02-26T11:48:47;6.60;99.90
23683;DHT22;24897;53.514;10.482;2023-02-26T11:51:32;5.90;99.90
23683;DHT22;24897;53.514;10.482;2023-02-26T11:54:26;5.60;99.90
23683;DHT22;24897;53.514;10.482;2023-02-26T11:57:24;5.90;99.90
23683;DHT22;24897;53.514;10.482;2023-02-26T12:00:22;6.90;99.90
23683;DHT22;24897;53.514;10.482;2023-02-26T12:03:17;6.60;99.90
23683;DHT22;24897;53.514;10.482;2023-02-26T12:06:03;6.80;99.90
23683;DHT22;24897;53.514;10.482;2023-02-26T12:08:47;6.40;99.90
23683;DHT22;24897;53.514;10.482;2023-02-26T12:34:02;6.40;99.90
23683;DHT22;24897;53.514;10.482;2023-02-26T12:40:26;6.70;99.90
23683;DHT22;24897;53.514;10.482;2023-02-26T12:49:26;7.40;99.90
23683;DHT22;24897;53.514;10.482;2023-02-26T12:55:29;7.30;99.90
23683;DHT22;24897;53.514;10.482;2023-02-26T12:58:31;7.20;99.90
23683;DHT22;24897;53.514;10.482;2023-02-26T13:04:28;6.70;99.90
23683;DHT22;24897;53.514;10.482;2023-02-26T13:07:37;6.60;99.90
23683;DHT22;24897;53.514;10.482;2023-02-26T13:10:44;6.40;99.90
23683;DHT22;24897;53.514;10.482;2023-02-26T13:19:58;5.60;99.90
23683;DHT22;24897;53.514;10.482;2023-02-26T13:22:46;5.60;99.90
23683;DHT22;24897;53.514;10.482;2023-02-26T13:25:45;5.80;99.90
23683;DHT22;24897;53.514;10.482;2023-02-26T13:28:55;5.90;99.90
23683;DHT22;24897;53.514;10.482;2023-02-26T13:31:59;6.10;99.90
23683;DHT22;24897;53.514;10.482;2023-02-26T13:35:03;6.60;99.90
23683;DHT22;24897;53.514;10.482;2023-02-26T13:37:54;7.10;99.90
23683;DHT22;24897;53.514;10.482;2023-02-26T13:46:50;6.50;99.90
23683;DHT22;24897;53.514;10.482;2023-02-26T13:49:54;6.20;99.90
23683;DHT22;24897;53.514;10.482;2023-02-26T13:52:54;6.10;99.90
23683;DHT22;24897;53.514;10.482;2023-02-26T13:55:45;6.40;99.90
23683;DHT22;24897;53.514;10.482;2023-02-26T13:58:39;6.10;99.90
23683;DHT22;24897;53.514;10.482;2023-02-26T14:01:33;6.20;99.90
23683;DHT22;24897;53.514;10.482;2023-02-26T14:07:12;6.40;99.90
23683;DHT22;24897;53.514;10.482;2023-02-26T14:10:03;6.60;99.90
23683;DHT22;24897;53.514;10.482;2023-02-26T14:13:02;6.70;99.90
23683;DHT22;24897;53.514;10.482;2023-02-26T14:16:02;6.70;99.90
23683;DHT22;24897;53.514;10.482;2023-02-26T14:19:04;6.70;99.90
23683;DHT22;24897;53.514;10.482;2023-02-26T14:24:38;7.50;99.90
23683;DHT22;24897;53.514;10.482;2023-02-26T14:27:38;7.30;99.90
23683;DHT22;24897;53.514;10.482;2023-02-26T14:30:32;7.10;99.90
23683;DHT22;24897;53.514;10.482;2023-02-26T14:33:18;6.90;99.90
23683;DHT22;24897;53.514;10.482;2023-02-26T14:36:05;6.80;99.90
23683;DHT22;24897;53.514;10.482;2023-02-26T14:38:53;6.50;99.90
23683;DHT22;24897;53.514;10.482;2023-02-26T14:41:40;6.40;99.90
23683;DHT22;24897;53.514;10.482;2023-02-26T14:44:28;6.20;99.90
23683;DHT22;24897;53.514;10.482;2023-02-26T14:47:14;6.10;99.90
23683;DHT22;24897;53.514;10.482;2023-02-26T14:49:59;6.40;99.90
23683;DHT22;24897;53.514;10.482;2023-02-26T14:56:10;5.80;99.90
23683;DHT22;24897;53.514;10.482;2023-02-26T15:05:04;5.30;99.90
23683;DHT22;24897;53.514;10.482;2023-02-26T15:17:36;5.30;99.90
23683;DHT22;24897;53.514;10.482;2023-02-26T15:26:26;5.20;99.90
23683;DHT22;24897;53.514;10.482;2023-02-26T15:29:13;5.00;99.90
23683;DHT22;24897;53.514;10.482;2023-02-26T15:32:00;4.90;99.90
23683;DHT22;24897;53.514;10.482;2023-02-26T15:35:06;4.90;99.90
23683;DHT22;24897;53.514;10.482;2023-02-26T15:37:55;5.10;99.90
23683;DHT22;24897;53.514;10.482;2023-02-26T15:40:41;5.20;99.90
23683;DHT22;24897;53.514;10.482;2023-02-26T15:43:27;5.30;99.90
23683;DHT22;24897;53.514;10.482;2023-02-26T15:46:13;5.50;99.90
23683;DHT22;24897;53.514;10.482;2023-02-26T15:49:01;5.70;99.90
23683;DHT22;24897;53.514;10.482;2023-02-26T15:51:49;5.50;99.90
23683;DHT22;24897;53.514;10.482;2023-02-26T15:54:56;5.50;99.90
23683;DHT22;24897;53.514;10.482;2023-02-26T15:57:42;5.50;99.90
23683;DHT22;24897;53.514;10.482;2023-02-26T16:00:26;5.40;99.90
23683;DHT22;24897;53.514;10.482;2023-02-26T16:03:11;5.20;99.90
23683;DHT22;24897;53.514;10.482;2023-02-26T16:05:57;5.10;99.90
23683;DHT22;24897;53.514;10.482;2023-02-26T16:08:41;5.00;99.90
23683;DHT22;24897;53.514;10.482;2023-02-26T16:11:35;4.80;99.90
23683;DHT22;24897;53.514;10.482;2023-02-26T16:14:23;4.70;99.90
23683;DHT22;24897;53.514;10.482;2023-02-26T16:17:13;4.60;99.90
23683;DHT22;24897;53.514;10.482;2023-02-26T16:20:01;4.50;99.90
23683;DHT22;24897;53.514;10.482;2023-02-26T16:23:11;4.40;99.90
23683;DHT22;24897;53.514;10.482;2023-02-26T16:26:01;4.40;99.90
23683;DHT22;24897;53.514;10.482;2023-02-26T16:28:47;4.30;99.90
23683;DHT22;24897;53.514;10.482;2023-02-26T16:31:33;4.50;99.90
23683;DHT22;24897;53.514;10.482;2023-02-26T16:34:29;4.20;99.90
23683;DHT22;24897;53.514;10.482;2023-02-26T16:40:26;4.10;99.90
23683;DHT22;24897;53.514;10.482;2023-02-26T16:43:33;4.00;99.90
23683;DHT22;24897;53.514;10.482;2023-02-26T16:46:40;3.90;99.90
23683;DHT22;24897;53.514;10.482;2023-02-26T16:49:29;3.80;99.90
23683;DHT22;24897;53.514;10.482;2023-02-26T16:52:18;4.00;99.90
23683;DHT22;24897;53.514;10.482;2023-02-26T16:55:04;3.70;99.90
23683;DHT22;24897;53.514;10.482;2023-02-26T16:57:48;3.60;99.90
23683;DHT22;24897;53.514;10.482;2023-02-26T17:00:33;3.60;99.90
23683;DHT22;24897;53.514;10.482;2023-02-26T17:03:22;3.50;99.90
23683;DHT22;24897;53.514;10.482;2023-02-26T17:06:09;3.50;99.90
23683;DHT22;24897;53.514;10.482;2023-02-26T17:08:59;3.40;99.90
23683;DHT22;24897;53.514;10.482;2023-02-26T17:11:44;3.40;99.90
23683;DHT22;24897;53.514;10.482;2023-02-26T17:14:36;3.30;99.90
23683;DHT22;24897;53.514;10.482;2023-02-26T17:17:20;3.30;99.90
23683;DHT22;24897;53.514;10.482;2023-02-26T17:20:04;3.20;99.90
23683;DHT22;24897;53.514;10.482;2023-02-26T17:22:49;3.20;99.90
23683;DHT22;24897;53.514;10.482;2023-02-26T17:25:40;3.10;99.90
23683;DHT22;24897;53.514;10.482;2023-02-26T17:28:33;3.10;99.90
23683;DHT22;24897;53.514;10.482;2023-02-26T17:31:23;3.10;99.90
23683;DHT22;24897;53.514;10.482;2023-02-26T17:34:09;3.00;99.90
23683;DHT22;24897;53.514;10.482;2023-02-26T17:36:55;3.00;99.90
23683;DHT22;24897;53.514;10.482;2023-02-26T17:39:41;2.90;99.90
23683;DHT22;24897;53.514;10.482;2023-02-26T17:42:26;2.90;99.90
23683;DHT22;24897;53.514;10.482;2023-02-26T17:45:10;2.90;99.90
23683;DHT22;24897;53.514;10.482;2023-02-26T17:47:54;2.90;99.90
23683;DHT22;24897;53.514;10.482;2023-02-26T17:50:49;2.80;99.90
23683;DHT22;24897;53.514;10.482;2023-02-26T17:53:34;2.80;99.90
23683;DHT22;24897;53.514;10.482;2023-02-26T17:56:26;2.80;99.90
23683;DHT22;24897;53.514;10.482;2023-02-26T17:59:11;2.80;99.90
23683;DHT22;24897;53.514;10.482;2023-02-26T18:01:55;2.70;99.90
23683;DHT22;24897;53.514;10.482;2023-02-26T18:04:39;2.70;99.90
23683;DHT22;24897;53.514;10.482;2023-02-26T18:07:24;2.70;99.90
23683;DHT22;24897;53.514;10.482;2023-02-26T18:10:16;2.60;99.90
23683;DHT22;24897;53.514;10.482;2023-02-26T18:13:00;2.50;99.90
23683;DHT22;24897;53.514;10.482;2023-02-26T18:15:47;2.50;99.90
23683;DHT22;24897;53.514;10.482;2023-02-26T18:18:32;2.50;99.90
23683;DHT22;24897;53.514;10.482;2023-02-26T18:21:16;2.40;99.90
23683;DHT22;24897;53.514;10.482;2023-02-26T18:24:00;2.40;99.90
23683;DHT22;24897;53.514;10.482;2023-02-26T18:26:44;2.40;99.90
23683;DHT22;24897;53.514;10.482;2023-02-26T18:29:28;2.30;99.90
23683;DHT22;24897;53.514;10.482;2023-02-26T18:32:17;2.30;99.90
23683;DHT22;24897;53.514;10.482;2023-02-26T18:35:02;2.20;99.90
23683;DHT22;24897;53.514;10.482;2023-02-26T18:37:50;2.10;99.90
23683;DHT22;24897;53.514;10.482;2023-02-26T18:40:35;2.10;99.90
23683;DHT22;24897;53.514;10.482;2023-02-26T18:43:20;2.00;99.90
23683;DHT22;24897;53.514;10.482;2023-02-26T18:46:05;2.00;99.90
23683;DHT22;24897;53.514;10.482;2023-02-26T18:48:50;1.90;99.90
23683;DHT22;24897;53.514;10.482;2023-02-26T18:51:34;1.80;99.90
23683;DHT22;24897;53.514;10.482;2023-02-26T18:54:18;1.80;99.90
23683;DHT22;24897;53.514;10.482;2023-02-26T18:57:04;1.70;99.90
23683;DHT22;24897;53.514;10.482;2023-02-26T18:59:49;1.70;99.90
23683;DHT22;24897;53.514;10.482;2023-02-26T19:02:34;1.50;99.90
23683;DHT22;24897;53.514;10.482;2023-02-26T19:05:18;1.50;99.90
23683;DHT22;24897;53.514;10.482;2023-02-26T19:08:07;1.40;99.90
23683;DHT22;24897;53.514;10.482;2023-02-26T19:10:51;1.40;99.90
23683;DHT22;24897;53.514;10.482;2023-02-26T19:13:35;1.30;99.90
23683;DHT22;24897;53.514;10.482;2023-02-26T19:16:19;1.20;99.90
23683;DHT22;24897;53.514;10.482;2023-02-26T19:19:05;1.20;99.90
23683;DHT22;24897;53.514;10.482;2023-02-26T19:21:52;0.60;99.90
23683;DHT22;24897;53.514;10.482;2023-02-26T19:24:37;1.00;99.90
23683;DHT22;24897;53.514;10.482;2023-02-26T19:27:21;0.80;99.90
23683;DHT22;24897;53.514;10.482;2023-02-26T19:30:06;0.80;99.90
23683;DHT22;24897;53.514;10.482;2023-02-26T19:38:20;1.10;99.90
23683;DHT22;24897;53.514;10.482;2023-02-26T19:41:06;0.80;99.90
23683;DHT22;24897;53.514;10.482;2023-02-26T19:43:51;0.80;99.90
23683;DHT22;24897;53.514;10.482;2023-02-26T19:46:35;0.80;99.90
23683;DHT22;24897;53.514;10.482;2023-02-26T19:49:19;0.70;99.90
23683;DHT22;24897;53.514;10.482;2023-02-26T19:52:03;0.50;99.90
23683;DHT22;24897;53.514;10.482;2023-02-26T19:57:32;0.20;99.90
23683;DHT22;24897;53.514;10.482;2023-02-26T20:00:16;-0.20;99.90
23683;DHT22;24897;53.514;10.482;2023-02-26T20:03:01;0.70;99.90
23683;DHT22;24897;53.514;10.482;2023-02-26T20:08:31;1.40;99.90
23683;DHT22;24897;53.514;10.482;2023-02-26T20:11:15;0.90;99.90
23683;DHT22;24897;53.514;10.482;2023-02-26T20:13:59;0.40;99.90
23683;DHT22;24897;53.514;10.482;2023-02-26T20:16:44;0.40;99.90
23683;DHT22;24897;53.514;10.482;2023-02-26T20:19:29;0.00;99.90
23683;DHT22;24897;53.514;10.482;2023-02-26T20:22:13;0.40;99.90
23683;DHT22;24897;53.514;10.482;2023-02-26T20:30:28;0.00;99.90
23683;DHT22;24897;53.514;10.482;2023-02-26T20:33:12;-0.30;99.90
23683;DHT22;24897;53.514;10.482;2023-02-26T20:35:57;0.20;99.90
23683;DHT22;24897;53.514;10.482;2023-02-26T20:38:42;0.30;99.90
23683;DHT22;24897;53.514;10.482;2023-02-26T20:41:26;0.10;99.90
23683;DHT22;24897;53.514;10.482;2023-02-26T20:44:10;-0.20;99.90
23683;DHT22;24897;53.514;10.482;2023-02-26T20:46:54;0.20;99.90